sensor_id;sensor_type;location;lat;lon;timestamp;P1;durP1;ratioP1;P2;durP2;ratioP2
22650;SDS011;11492;42.646;23.400;2023-03-01T00:01:14;5.70;;;3.80;;
22650;SDS011;11492;42.646;23.400;2023-03-01T00:03:41;6.78;;;3.78;;
22650;SDS011;11492;42.646;23.400;2023-03-01T00:06:07;4.78;;;3.60;;
22650;SDS011;11492;42.646;23.400;2023-03-01T00:08:33;6.45;;;3.40;;
22650;SDS011;11492;42.646;23.400;2023-03-01T00:11:00;5.50;;;3.85;;
22650;SDS011;11492;42.646;23.400;2023-03-01T00:13:27;5.18;;;3.60;;
22650;SDS011;11492;42.646;23.400;2023-03-01T00:15:52;5.43;;;3.58;;
22650;SDS011;11492;42.646;23.400;2023-03-01T00:18:18;5.50;;;3.65;;
22650;SDS011;11492;42.646;23.400;2023-03-01T00:20:49;4.50;;;3.40;;
22650;SDS011;11492;42.646;23.400;2023-03-01T00:23:16;5.72;;;3.58;;
22650;SDS011;11492;42.646;23.400;2023-03-01T00:25:42;4.40;;;3.35;;
22650;SDS011;11492;42.646;23.400;2023-03-01T00:28:07;3.90;;;3.15;;
22650;SDS011;11492;42.646;23.400;2023-03-01T00:30:33;3.90;;;3.20;;
22650;SDS011;11492;42.646;23.400;2023-03-01T00:32:58;4.38;;;3.10;;
22650;SDS011;11492;42.646;23.400;2023-03-01T00:35:24;4.43;;;3.35;;
22650;SDS011;11492;42.646;23.400;2023-03-01T00:37:49;8.05;;;3.30;;
22650;SDS011;11492;42.646;23.400;2023-03-01T00:40:22;4.13;;;3.08;;
22650;SDS011;11492;42.646;23.400;2023-03-01T00:42:49;4.80;;;3.15;;
22650;SDS011;11492;42.646;23.400;2023-03-01T00:45:14;4.53;;;3.10;;
22650;SDS011;11492;42.646;23.400;2023-03-01T00:47:40;3.92;;;2.85;;
22650;SDS011;11492;42.646;23.400;2023-03-01T00:50:05;4.00;;;3.25;;
22650;SDS011;11492;42.646;23.400;2023-03-01T00:52:31;5.32;;;3.33;;
22650;SDS011;11492;42.646;23.400;2023-03-01T00:54:57;4.05;;;3.25;;
22650;SDS011;11492;42.646;23.400;2023-03-01T00:57:23;5.25;;;3.40;;
22650;SDS011;11492;42.646;23.400;2023-03-01T00:59:48;4.10;;;3.25;;
22650;SDS011;11492;42.646;23.400;2023-03-01T01:02:14;5.45;;;3.08;;
22650;SDS011;11492;42.646;23.400;2023-03-01T01:04:39;3.90;;;2.80;;
22650;SDS011;11492;42.646;23.400;2023-03-01T01:07:05;3.75;;;2.92;;
22650;SDS011;11492;42.646;23.400;2023-03-01T01:09:30;3.95;;;2.90;;
22650;SDS011;11492;42.646;23.400;2023-03-01T01:11:56;3.95;;;3.10;;
22650;SDS011;11492;42.646;23.400;2023-03-01T01:14:21;4.45;;;3.03;;
22650;SDS011;11492;42.646;23.400;2023-03-01T01:16:47;3.08;;;2.20;;
22650;SDS011;11492;42.646;23.400;2023-03-01T01:19:13;3.03;;;2.60;;
22650;SDS011;11492;42.646;23.400;2023-03-01T01:21:39;3.45;;;2.55;;
22650;SDS011;11492;42.646;23.400;2023-03-01T01:24:05;2.35;;;2.15;;
22650;SDS011;11492;42.646;23.400;2023-03-01T01:26:32;3.05;;;2.50;;
22650;SDS011;11492;42.646;23.400;2023-03-01T01:28:59;3.17;;;2.42;;
22650;SDS011;11492;42.646;23.400;2023-03-01T01:31:28;4.88;;;2.63;;
22650;SDS011;11492;42.646;23.400;2023-03-01T01:33:55;3.00;;;2.30;;
22650;SDS011;11492;42.646;23.400;2023-03-01T01:36:21;6.00;;;2.30;;
22650;SDS011;11492;42.646;23.400;2023-03-01T01:38:46;2.30;;;2.10;;
22650;SDS011;11492;42.646;23.400;2023-03-01T01:41:12;2.67;;;2.28;;
22650;SDS011;11492;42.646;23.400;2023-03-01T01:43:40;3.65;;;1.98;;
22650;SDS011;11492;42.646;23.400;2023-03-01T01:48:42;3.28;;;1.90;;
22650;SDS011;11492;42.646;23.400;2023-03-01T01:51:13;2.35;;;1.83;;
22650;SDS011;11492;42.646;23.400;2023-03-01T01:53:44;2.15;;;1.90;;
22650;SDS011;11492;42.646;23.400;2023-03-01T01:56:12;2.20;;;1.90;;
22650;SDS011;11492;42.646;23.400;2023-03-01T01:58:40;1.95;;;1.70;;
22650;SDS011;11492;42.646;23.400;2023-03-01T02:01:07;5.07;;;2.00;;
22650;SDS011;11492;42.646;23.400;2023-03-01T02:03:32;3.03;;;1.75;;
22650;SDS011;11492;42.646;23.400;2023-03-01T02:06:06;1.90;;;1.60;;
22650;SDS011;11492;42.646;23.400;2023-03-01T02:08:34;1.65;;;1.55;;
22650;SDS011;11492;42.646;23.400;2023-03-01T02:11:02;1.73;;;1.63;;
22650;SDS011;11492;42.646;23.400;2023-03-01T02:13:30;1.85;;;1.73;;
22650;SDS011;11492;42.646;23.400;2023-03-01T02:15:56;1.83;;;1.67;;
22650;SDS011;11492;42.646;23.400;2023-03-01T02:18:22;2.17;;;1.80;;
22650;SDS011;11492;42.646;23.400;2023-03-01T02:23:33;2.45;;;2.00;;
22650;SDS011;11492;42.646;23.400;2023-03-01T02:28:46;1.90;;;1.80;;
22650;SDS011;11492;42.646;23.400;2023-03-01T02:31:14;2.20;;;1.80;;
22650;SDS011;11492;42.646;23.400;2023-03-01T02:34:02;1.85;;;1.70;;
22650;SDS011;11492;42.646;23.400;2023-03-01T02:36:52;2.17;;;1.98;;
22650;SDS011;11492;42.646;23.400;2023-03-01T02:39:19;2.25;;;2.03;;
22650;SDS011;11492;42.646;23.400;2023-03-01T02:41:58;2.60;;;2.00;;
22650;SDS011;11492;42.646;23.400;2023-03-01T02:44:25;2.30;;;2.10;;
22650;SDS011;11492;42.646;23.400;2023-03-01T02:46:51;2.72;;;2.15;;
22650;SDS011;11492;42.646;23.400;2023-03-01T02:49:36;2.22;;;2.03;;
22650;SDS011;11492;42.646;23.400;2023-03-01T02:52:16;2.28;;;1.98;;
22650;SDS011;11492;42.646;23.400;2023-03-01T02:55:02;4.18;;;2.28;;
22650;SDS011;11492;42.646;23.400;2023-03-01T02:57:30;3.78;;;2.45;;
22650;SDS011;11492;42.646;23.400;2023-03-01T02:59:59;3.42;;;2.45;;
22650;SDS011;11492;42.646;23.400;2023-03-01T03:02:47;3.30;;;2.80;;
22650;SDS011;11492;42.646;23.400;2023-03-01T03:05:15;3.75;;;3.10;;
22650;SDS011;11492;42.646;23.400;2023-03-01T03:07:43;4.70;;;2.83;;
22650;SDS011;11492;42.646;23.400;2023-03-01T03:10:11;3.90;;;3.00;;
22650;SDS011;11492;42.646;23.400;2023-03-01T03:13:02;4.30;;;3.10;;
22650;SDS011;11492;42.646;23.400;2023-03-01T03:15:29;4.07;;;3.05;;
22650;SDS011;11492;42.646;23.400;2023-03-01T03:17:56;3.95;;;2.90;;
22650;SDS011;11492;42.646;23.400;2023-03-01T03:20:24;4.10;;;3.40;;
22650;SDS011;11492;42.646;23.400;2023-03-01T03:22:52;3.08;;;2.72;;
22650;SDS011;11492;42.646;23.400;2023-03-01T03:25:19;3.75;;;2.92;;
22650;SDS011;11492;42.646;23.400;2023-03-01T03:27:46;3.15;;;2.70;;
22650;SDS011;11492;42.646;23.400;2023-03-01T03:30:16;3.55;;;2.50;;
22650;SDS011;11492;42.646;23.400;2023-03-01T03:32:44;3.65;;;2.70;;
22650;SDS011;11492;42.646;23.400;2023-03-01T03:35:21;3.20;;;2.60;;
22650;SDS011;11492;42.646;23.400;2023-03-01T03:37:57;3.03;;;2.63;;
22650;SDS011;11492;42.646;23.400;2023-03-01T03:40:38;3.17;;;2.70;;
22650;SDS011;11492;42.646;23.400;2023-03-01T03:43:13;2.88;;;2.47;;
22650;SDS011;11492;42.646;23.400;2023-03-01T03:45:39;3.08;;;2.53;;
22650;SDS011;11492;42.646;23.400;2023-03-01T03:48:06;3.85;;;2.50;;
22650;SDS011;11492;42.646;23.400;2023-03-01T03:50:33;3.08;;;2.50;;
22650;SDS011;11492;42.646;23.400;2023-03-01T03:53:03;3.60;;;2.42;;
22650;SDS011;11492;42.646;23.400;2023-03-01T03:55:29;3.38;;;2.72;;
22650;SDS011;11492;42.646;23.400;2023-03-01T03:57:56;3.22;;;2.17;;
22650;SDS011;11492;42.646;23.400;2023-03-01T04:00:27;6.28;;;2.40;;
22650;SDS011;11492;42.646;23.400;2023-03-01T04:02:53;3.03;;;2.53;;
22650;SDS011;11492;42.646;23.400;2023-03-01T04:05:22;3.08;;;2.50;;
22650;SDS011;11492;42.646;23.400;2023-03-01T04:07:48;2.47;;;2.28;;
22650;SDS011;11492;42.646;23.400;2023-03-01T04:10:15;3.50;;;2.50;;
22650;SDS011;11492;42.646;23.400;2023-03-01T04:12:41;2.88;;;2.53;;
22650;SDS011;11492;42.646;23.400;2023-03-01T04:15:12;3.83;;;2.35;;
22650;SDS011;11492;42.646;23.400;2023-03-01T04:17:44;3.20;;;2.70;;
22650;SDS011;11492;42.646;23.400;2023-03-01T04:20:15;3.92;;;2.40;;
22650;SDS011;11492;42.646;23.400;2023-03-01T04:22:43;3.67;;;2.60;;
22650;SDS011;11492;42.646;23.400;2023-03-01T04:25:12;3.80;;;2.85;;
22650;SDS011;11492;42.646;23.400;2023-03-01T04:27:39;3.85;;;2.90;;
22650;SDS011;11492;42.646;23.400;2023-03-01T04:30:05;3.63;;;2.72;;
22650;SDS011;11492;42.646;23.400;2023-03-01T04:32:32;3.38;;;2.72;;
22650;SDS011;11492;42.646;23.400;2023-03-01T04:34:58;3.90;;;2.80;;
22650;SDS011;11492;42.646;23.400;2023-03-01T04:37:24;3.97;;;3.10;;
22650;SDS011;11492;42.646;23.400;2023-03-01T04:39:50;3.90;;;3.15;;
22650;SDS011;11492;42.646;23.400;2023-03-01T04:42:15;3.65;;;2.88;;
22650;SDS011;11492;42.646;23.400;2023-03-01T04:44:42;3.10;;;2.78;;
22650;SDS011;11492;42.646;23.400;2023-03-01T04:47:08;3.80;;;2.88;;
22650;SDS011;11492;42.646;23.400;2023-03-01T04:49:33;4.00;;;3.15;;
22650;SDS011;11492;42.646;23.400;2023-03-01T04:51:59;4.57;;;3.00;;
22650;SDS011;11492;42.646;23.400;2023-03-01T04:54:30;5.97;;;3.45;;
22650;SDS011;11492;42.646;23.400;2023-03-01T04:56:57;3.20;;;2.63;;
22650;SDS011;11492;42.646;23.400;2023-03-01T04:59:23;3.42;;;2.60;;
22650;SDS011;11492;42.646;23.400;2023-03-01T05:01:50;3.60;;;2.60;;
22650;SDS011;11492;42.646;23.400;2023-03-01T05:04:16;6.35;;;2.70;;
22650;SDS011;11492;42.646;23.400;2023-03-01T05:06:41;3.88;;;3.03;;
22650;SDS011;11492;42.646;23.400;2023-03-01T05:09:07;2.92;;;2.40;;
22650;SDS011;11492;42.646;23.400;2023-03-01T05:11:32;3.40;;;2.65;;
22650;SDS011;11492;42.646;23.400;2023-03-01T05:14:04;4.47;;;2.50;;
22650;SDS011;11492;42.646;23.400;2023-03-01T05:16:30;4.70;;;2.70;;
22650;SDS011;11492;42.646;23.400;2023-03-01T05:18:57;3.92;;;2.80;;
22650;SDS011;11492;42.646;23.400;2023-03-01T05:21:23;3.30;;;2.20;;
22650;SDS011;11492;42.646;23.400;2023-03-01T05:23:49;3.25;;;2.22;;
22650;SDS011;11492;42.646;23.400;2023-03-01T05:26:15;3.72;;;2.10;;
22650;SDS011;11492;42.646;23.400;2023-03-01T05:28:42;3.75;;;2.20;;
22650;SDS011;11492;42.646;23.400;2023-03-01T05:31:08;3.38;;;2.70;;
22650;SDS011;11492;42.646;23.400;2023-03-01T05:33:37;9.00;;;2.85;;
22650;SDS011;11492;42.646;23.400;2023-03-01T05:36:08;5.25;;;2.90;;
22650;SDS011;11492;42.646;23.400;2023-03-01T05:38:34;3.92;;;2.58;;
22650;SDS011;11492;42.646;23.400;2023-03-01T05:41:00;3.50;;;2.35;;
22650;SDS011;11492;42.646;23.400;2023-03-01T05:43:26;4.90;;;2.88;;
22650;SDS011;11492;42.646;23.400;2023-03-01T05:45:59;3.95;;;3.10;;
22650;SDS011;11492;42.646;23.400;2023-03-01T05:48:24;5.47;;;3.10;;
22650;SDS011;11492;42.646;23.400;2023-03-01T05:50:50;3.75;;;2.78;;
22650;SDS011;11492;42.646;23.400;2023-03-01T05:53:16;4.43;;;2.85;;
22650;SDS011;11492;42.646;23.400;2023-03-01T05:55:44;4.78;;;3.00;;
22650;SDS011;11492;42.646;23.400;2023-03-01T05:58:13;5.07;;;2.63;;
22650;SDS011;11492;42.646;23.400;2023-03-01T06:00:41;3.13;;;2.60;;
22650;SDS011;11492;42.646;23.400;2023-03-01T06:03:09;9.85;;;3.17;;
22650;SDS011;11492;42.646;23.400;2023-03-01T06:05:36;6.03;;;3.40;;
22650;SDS011;11492;42.646;23.400;2023-03-01T06:08:01;6.82;;;3.30;;
22650;SDS011;11492;42.646;23.400;2023-03-01T06:10:27;5.88;;;3.22;;
22650;SDS011;11492;42.646;23.400;2023-03-01T06:12:53;4.32;;;2.90;;
22650;SDS011;11492;42.646;23.400;2023-03-01T06:15:19;3.88;;;2.95;;
22650;SDS011;11492;42.646;23.400;2023-03-01T06:17:45;6.00;;;3.05;;
22650;SDS011;11492;42.646;23.400;2023-03-01T06:20:15;5.25;;;3.30;;
22650;SDS011;11492;42.646;23.400;2023-03-01T06:22:45;6.95;;;3.45;;
22650;SDS011;11492;42.646;23.400;2023-03-01T06:25:12;5.38;;;2.88;;
22650;SDS011;11492;42.646;23.400;2023-03-01T06:27:40;3.50;;;2.70;;
22650;SDS011;11492;42.646;23.400;2023-03-01T06:30:07;4.35;;;2.50;;
22650;SDS011;11492;42.646;23.400;2023-03-01T06:32:35;8.82;;;3.08;;
22650;SDS011;11492;42.646;23.400;2023-03-01T06:35:02;6.10;;;3.50;;
22650;SDS011;11492;42.646;23.400;2023-03-01T06:37:28;5.00;;;3.47;;
22650;SDS011;11492;42.646;23.400;2023-03-01T06:39:53;6.18;;;3.33;;
22650;SDS011;11492;42.646;23.400;2023-03-01T06:42:19;7.15;;;3.28;;
22650;SDS011;11492;42.646;23.400;2023-03-01T06:44:44;4.05;;;2.78;;
22650;SDS011;11492;42.646;23.400;2023-03-01T06:47:10;3.92;;;2.40;;
22650;SDS011;11492;42.646;23.400;2023-03-01T06:49:36;3.70;;;2.90;;
22650;SDS011;11492;42.646;23.400;2023-03-01T06:52:02;3.35;;;2.60;;
22650;SDS011;11492;42.646;23.400;2023-03-01T06:54:27;6.97;;;2.90;;
22650;SDS011;11492;42.646;23.400;2023-03-01T06:56:53;3.50;;;2.40;;
22650;SDS011;11492;42.646;23.400;2023-03-01T06:59:18;4.28;;;2.30;;
22650;SDS011;11492;42.646;23.400;2023-03-01T07:01:44;8.68;;;2.63;;
22650;SDS011;11492;42.646;23.400;2023-03-01T07:04:10;3.30;;;2.25;;
22650;SDS011;11492;42.646;23.400;2023-03-01T07:06:36;5.30;;;2.05;;
22650;SDS011;11492;42.646;23.400;2023-03-01T07:09:01;9.68;;;2.38;;
22650;SDS011;11492;42.646;23.400;2023-03-01T07:11:27;6.93;;;2.30;;
22650;SDS011;11492;42.646;23.400;2023-03-01T07:13:52;4.35;;;2.33;;
22650;SDS011;11492;42.646;23.400;2023-03-01T07:16:18;5.55;;;1.80;;
22650;SDS011;11492;42.646;23.400;2023-03-01T07:18:45;3.17;;;1.88;;
22650;SDS011;11492;42.646;23.400;2023-03-01T07:21:11;6.75;;;2.28;;
22650;SDS011;11492;42.646;23.400;2023-03-01T07:23:37;4.75;;;2.10;;
22650;SDS011;11492;42.646;23.400;2023-03-01T07:26:03;6.72;;;2.95;;
22650;SDS011;11492;42.646;23.400;2023-03-01T07:28:28;3.80;;;2.03;;
22650;SDS011;11492;42.646;23.400;2023-03-01T07:30:55;2.85;;;1.90;;
22650;SDS011;11492;42.646;23.400;2023-03-01T07:33:26;3.78;;;1.70;;
22650;SDS011;11492;42.646;23.400;2023-03-01T07:35:55;2.53;;;1.70;;
22650;SDS011;11492;42.646;23.400;2023-03-01T07:38:24;2.47;;;1.83;;
22650;SDS011;11492;42.646;23.400;2023-03-01T07:40:50;4.03;;;2.00;;
22650;SDS011;11492;42.646;23.400;2023-03-01T07:43:15;3.88;;;1.55;;
22650;SDS011;11492;42.646;23.400;2023-03-01T07:45:41;3.85;;;1.70;;
22650;SDS011;11492;42.646;23.400;2023-03-01T07:48:06;2.88;;;1.88;;
22650;SDS011;11492;42.646;23.400;2023-03-01T07:50:31;2.72;;;1.70;;
22650;SDS011;11492;42.646;23.400;2023-03-01T07:52:57;2.40;;;1.80;;
22650;SDS011;11492;42.646;23.400;2023-03-01T07:55:22;6.65;;;2.08;;
22650;SDS011;11492;42.646;23.400;2023-03-01T07:57:48;4.10;;;2.15;;
22650;SDS011;11492;42.646;23.400;2023-03-01T08:00:13;3.78;;;1.85;;
22650;SDS011;11492;42.646;23.400;2023-03-01T08:02:39;2.92;;;1.83;;
22650;SDS011;11492;42.646;23.400;2023-03-01T08:05:07;4.57;;;2.08;;
22650;SDS011;11492;42.646;23.400;2023-03-01T08:07:33;3.60;;;1.98;;
22650;SDS011;11492;42.646;23.400;2023-03-01T08:09:59;5.70;;;1.88;;
22650;SDS011;11492;42.646;23.400;2023-03-01T08:12:24;3.53;;;2.03;;
22650;SDS011;11492;42.646;23.400;2023-03-01T08:14:52;3.67;;;2.17;;
22650;SDS011;11492;42.646;23.400;2023-03-01T08:17:18;2.95;;;1.80;;
22650;SDS011;11492;42.646;23.400;2023-03-01T08:19:43;6.70;;;1.98;;
22650;SDS011;11492;42.646;23.400;2023-03-01T08:22:08;3.78;;;2.03;;
22650;SDS011;11492;42.646;23.400;2023-03-01T08:24:34;2.75;;;2.00;;
22650;SDS011;11492;42.646;23.400;2023-03-01T08:26:59;4.50;;;1.80;;
22650;SDS011;11492;42.646;23.400;2023-03-01T08:29:25;2.63;;;1.80;;
22650;SDS011;11492;42.646;23.400;2023-03-01T08:31:51;2.40;;;1.90;;
22650;SDS011;11492;42.646;23.400;2023-03-01T08:34:17;6.55;;;2.90;;
22650;SDS011;11492;42.646;23.400;2023-03-01T08:36:43;9.43;;;2.92;;
22650;SDS011;11492;42.646;23.400;2023-03-01T08:39:11;4.38;;;2.15;;
22650;SDS011;11492;42.646;23.400;2023-03-01T08:41:39;4.25;;;2.78;;
22650;SDS011;11492;42.646;23.400;2023-03-01T08:44:05;3.80;;;2.92;;
22650;SDS011;11492;42.646;23.400;2023-03-01T08:46:32;5.22;;;2.55;;
22650;SDS011;11492;42.646;23.400;2023-03-01T08:48:59;8.68;;;2.70;;
22650;SDS011;11492;42.646;23.400;2023-03-01T08:51:25;5.22;;;2.80;;
22650;SDS011;11492;42.646;23.400;2023-03-01T08:53:51;4.72;;;2.90;;
22650;SDS011;11492;42.646;23.400;2023-03-01T08:56:17;4.47;;;2.45;;
22650;SDS011;11492;42.646;23.400;2023-03-01T08:58:46;5.40;;;2.30;;
22650;SDS011;11492;42.646;23.400;2023-03-01T09:01:17;3.30;;;2.40;;
22650;SDS011;11492;42.646;23.400;2023-03-01T09:03:44;4.03;;;2.30;;
22650;SDS011;11492;42.646;23.400;2023-03-01T09:06:10;3.13;;;2.00;;
22650;SDS011;11492;42.646;23.400;2023-03-01T09:08:36;6.20;;;1.90;;
22650;SDS011;11492;42.646;23.400;2023-03-01T09:11:04;6.97;;;2.03;;
22650;SDS011;11492;42.646;23.400;2023-03-01T09:13:30;3.92;;;1.85;;
22650;SDS011;11492;42.646;23.400;2023-03-01T09:15:57;6.88;;;2.05;;
22650;SDS011;11492;42.646;23.400;2023-03-01T09:18:22;3.38;;;1.80;;
22650;SDS011;11492;42.646;23.400;2023-03-01T09:20:48;5.43;;;1.90;;
22650;SDS011;11492;42.646;23.400;2023-03-01T09:23:13;7.70;;;1.90;;
22650;SDS011;11492;42.646;23.400;2023-03-01T09:25:39;2.95;;;1.42;;
22650;SDS011;11492;42.646;23.400;2023-03-01T09:28:04;2.33;;;1.27;;
22650;SDS011;11492;42.646;23.400;2023-03-01T09:30:29;3.67;;;1.65;;
22650;SDS011;11492;42.646;23.400;2023-03-01T09:32:58;2.22;;;1.30;;
22650;SDS011;11492;42.646;23.400;2023-03-01T09:35:23;1.80;;;1.25;;
22650;SDS011;11492;42.646;23.400;2023-03-01T09:37:49;4.43;;;1.58;;
22650;SDS011;11492;42.646;23.400;2023-03-01T09:40:16;5.03;;;1.55;;
22650;SDS011;11492;42.646;23.400;2023-03-01T09:42:55;5.35;;;2.28;;
22650;SDS011;11492;42.646;23.400;2023-03-01T09:45:25;2.60;;;1.48;;
22650;SDS011;11492;42.646;23.400;2023-03-01T09:48:12;10.48;;;1.77;;
22650;SDS011;11492;42.646;23.400;2023-03-01T09:50:44;7.40;;;1.70;;
22650;SDS011;11492;42.646;23.400;2023-03-01T09:53:14;4.68;;;1.85;;
22650;SDS011;11492;42.646;23.400;2023-03-01T10:01:46;2.60;;;1.52;;
22650;SDS011;11492;42.646;23.400;2023-03-01T10:06:39;4.82;;;1.42;;
22650;SDS011;11492;42.646;23.400;2023-03-01T10:09:14;3.70;;;1.70;;
22650;SDS011;11492;42.646;23.400;2023-03-01T10:11:47;5.00;;;1.63;;
22650;SDS011;11492;42.646;23.400;2023-03-01T10:14:28;2.83;;;1.60;;
22650;SDS011;11492;42.646;23.400;2023-03-01T10:17:08;3.67;;;1.60;;
22650;SDS011;11492;42.646;23.400;2023-03-01T10:19:43;2.63;;;1.63;;
22650;SDS011;11492;42.646;23.400;2023-03-01T10:24:41;3.28;;;1.50;;
22650;SDS011;11492;42.646;23.400;2023-03-01T10:27:23;6.80;;;2.55;;
22650;SDS011;11492;42.646;23.400;2023-03-01T10:32:38;2.42;;;2.03;;
22650;SDS011;11492;42.646;23.400;2023-03-01T10:35:23;3.65;;;1.95;;
22650;SDS011;11492;42.646;23.400;2023-03-01T10:40:59;4.35;;;1.83;;
22650;SDS011;11492;42.646;23.400;2023-03-01T10:46:37;4.90;;;2.08;;
22650;SDS011;11492;42.646;23.400;2023-03-01T10:49:16;2.72;;;1.70;;
22650;SDS011;11492;42.646;23.400;2023-03-01T10:51:49;2.95;;;1.50;;
22650;SDS011;11492;42.646;23.400;2023-03-01T10:56:49;3.17;;;2.10;;
22650;SDS011;11492;42.646;23.400;2023-03-01T10:59:36;2.70;;;1.50;;
22650;SDS011;11492;42.646;23.400;2023-03-01T11:04:55;3.55;;;1.50;;
22650;SDS011;11492;42.646;23.400;2023-03-01T11:07:24;7.35;;;2.08;;
22650;SDS011;11492;42.646;23.400;2023-03-01T11:09:50;2.58;;;1.60;;
22650;SDS011;11492;42.646;23.400;2023-03-01T11:12:16;2.75;;;1.90;;
22650;SDS011;11492;42.646;23.400;2023-03-01T11:14:46;1.90;;;1.55;;
22650;SDS011;11492;42.646;23.400;2023-03-01T11:17:29;4.05;;;1.60;;
22650;SDS011;11492;42.646;23.400;2023-03-01T11:20:00;2.15;;;1.70;;
22650;SDS011;11492;42.646;23.400;2023-03-01T11:23:24;4.47;;;1.90;;
22650;SDS011;11492;42.646;23.400;2023-03-01T11:25:37;4.35;;;1.70;;
22650;SDS011;11492;42.646;23.400;2023-03-01T11:28:07;3.20;;;2.00;;
22650;SDS011;11492;42.646;23.400;2023-03-01T11:30:41;8.68;;;2.20;;
22650;SDS011;11492;42.646;23.400;2023-03-01T11:36:03;8.63;;;1.88;;
22650;SDS011;11492;42.646;23.400;2023-03-01T11:38:36;3.58;;;2.10;;
22650;SDS011;11492;42.646;23.400;2023-03-01T11:43:44;5.70;;;2.30;;
22650;SDS011;11492;42.646;23.400;2023-03-01T11:54:30;2.63;;;2.20;;
22650;SDS011;11492;42.646;23.400;2023-03-01T12:02:40;5.97;;;4.30;;
22650;SDS011;11492;42.646;23.400;2023-03-01T12:05:23;6.13;;;4.07;;
22650;SDS011;11492;42.646;23.400;2023-03-01T12:45:17;4.63;;;3.22;;
22650;SDS011;11492;42.646;23.400;2023-03-01T12:50:51;4.47;;;2.85;;
22650;SDS011;11492;42.646;23.400;2023-03-01T12:55:48;8.23;;;3.38;;
22650;SDS011;11492;42.646;23.400;2023-03-01T13:01:05;7.57;;;3.17;;
22650;SDS011;11492;42.646;23.400;2023-03-01T13:10:15;4.82;;;3.40;;
22650;SDS011;11492;42.646;23.400;2023-03-01T13:13:00;6.18;;;3.65;;
22650;SDS011;11492;42.646;23.400;2023-03-01T13:17:54;7.35;;;3.78;;
22650;SDS011;11492;42.646;23.400;2023-03-01T13:21:04;8.57;;;4.32;;
22650;SDS011;11492;42.646;23.400;2023-03-01T13:30:59;12.57;;;4.28;;
22650;SDS011;11492;42.646;23.400;2023-03-01T13:35:55;6.80;;;4.35;;
22650;SDS011;11492;42.646;23.400;2023-03-01T13:41:13;9.25;;;4.63;;
22650;SDS011;11492;42.646;23.400;2023-03-01T13:44:01;6.20;;;3.33;;
22650;SDS011;11492;42.646;23.400;2023-03-01T13:46:35;8.15;;;3.92;;
22650;SDS011;11492;42.646;23.400;2023-03-01T13:49:01;7.47;;;4.18;;
22650;SDS011;11492;42.646;23.400;2023-03-01T13:51:27;6.25;;;3.15;;
22650;SDS011;11492;42.646;23.400;2023-03-01T13:53:53;3.95;;;2.97;;
22650;SDS011;11492;42.646;23.400;2023-03-01T13:56:24;8.50;;;3.03;;
22650;SDS011;11492;42.646;23.400;2023-03-01T13:58:59;6.82;;;2.78;;
22650;SDS011;11492;42.646;23.400;2023-03-01T14:01:32;8.38;;;2.80;;
22650;SDS011;11492;42.646;23.400;2023-03-01T14:04:00;7.55;;;3.78;;
22650;SDS011;11492;42.646;23.400;2023-03-01T14:09:10;10.95;;;3.42;;
22650;SDS011;11492;42.646;23.400;2023-03-01T14:11:57;5.53;;;3.10;;
22650;SDS011;11492;42.646;23.400;2023-03-01T14:14:51;4.05;;;2.38;;
22650;SDS011;11492;42.646;23.400;2023-03-01T14:17:33;6.40;;;2.70;;
22650;SDS011;11492;42.646;23.400;2023-03-01T14:20:07;4.70;;;3.00;;
22650;SDS011;11492;42.646;23.400;2023-03-01T14:22:55;6.25;;;3.55;;
22650;SDS011;11492;42.646;23.400;2023-03-01T14:25:28;14.10;;;3.30;;
22650;SDS011;11492;42.646;23.400;2023-03-01T14:30:40;7.57;;;3.80;;
22650;SDS011;11492;42.646;23.400;2023-03-01T14:33:21;8.30;;;2.97;;
22650;SDS011;11492;42.646;23.400;2023-03-01T14:36:32;8.55;;;4.60;;
22650;SDS011;11492;42.646;23.400;2023-03-01T14:38:39;8.45;;;2.85;;
22650;SDS011;11492;42.646;23.400;2023-03-01T14:41:10;7.22;;;2.60;;
22650;SDS011;11492;42.646;23.400;2023-03-01T14:43:41;8.98;;;2.53;;
22650;SDS011;11492;42.646;23.400;2023-03-01T14:46:17;11.32;;;3.17;;
22650;SDS011;11492;42.646;23.400;2023-03-01T14:48:50;13.93;;;3.00;;
22650;SDS011;11492;42.646;23.400;2023-03-01T14:51:18;5.78;;;3.03;;
22650;SDS011;11492;42.646;23.400;2023-03-01T14:53:43;9.40;;;2.97;;
22650;SDS011;11492;42.646;23.400;2023-03-01T14:56:13;6.50;;;2.40;;
22650;SDS011;11492;42.646;23.400;2023-03-01T14:58:42;8.32;;;2.42;;
22650;SDS011;11492;42.646;23.400;2023-03-01T15:01:10;7.88;;;2.60;;
22650;SDS011;11492;42.646;23.400;2023-03-01T15:03:41;6.35;;;2.88;;
22650;SDS011;11492;42.646;23.400;2023-03-01T15:06:09;8.93;;;3.35;;
22650;SDS011;11492;42.646;23.400;2023-03-01T15:08:37;10.98;;;3.60;;
22650;SDS011;11492;42.646;23.400;2023-03-01T15:13:39;10.25;;;4.90;;
22650;SDS011;11492;42.646;23.400;2023-03-01T15:16:06;11.98;;;5.90;;
22650;SDS011;11492;42.646;23.400;2023-03-01T15:18:32;9.10;;;4.20;;
22650;SDS011;11492;42.646;23.400;2023-03-01T15:21:06;6.55;;;3.40;;
22650;SDS011;11492;42.646;23.400;2023-03-01T15:23:40;9.35;;;4.22;;
22650;SDS011;11492;42.646;23.400;2023-03-01T15:26:16;10.75;;;4.22;;
22650;SDS011;11492;42.646;23.400;2023-03-01T15:28:51;8.43;;;4.30;;
22650;SDS011;11492;42.646;23.400;2023-03-01T15:31:23;6.63;;;4.22;;
22650;SDS011;11492;42.646;23.400;2023-03-01T15:33:50;10.10;;;4.00;;
22650;SDS011;11492;42.646;23.400;2023-03-01T15:39:22;7.93;;;3.88;;
22650;SDS011;11492;42.646;23.400;2023-03-01T15:48:04;12.68;;;5.80;;
22650;SDS011;11492;42.646;23.400;2023-03-01T15:53:11;8.40;;;4.95;;
22650;SDS011;11492;42.646;23.400;2023-03-01T15:55:39;14.40;;;5.20;;
22650;SDS011;11492;42.646;23.400;2023-03-01T15:58:09;13.10;;;5.88;;
22650;SDS011;11492;42.646;23.400;2023-03-01T16:00:39;12.50;;;6.82;;
22650;SDS011;11492;42.646;23.400;2023-03-01T16:03:05;10.45;;;6.22;;
22650;SDS011;11492;42.646;23.400;2023-03-01T16:05:32;11.43;;;5.15;;
22650;SDS011;11492;42.646;23.400;2023-03-01T16:08:00;12.98;;;4.50;;
22650;SDS011;11492;42.646;23.400;2023-03-01T16:10:26;7.10;;;4.00;;
22650;SDS011;11492;42.646;23.400;2023-03-01T16:12:51;7.90;;;3.33;;
22650;SDS011;11492;42.646;23.400;2023-03-01T16:15:21;17.20;;;6.32;;
22650;SDS011;11492;42.646;23.400;2023-03-01T16:17:58;6.32;;;3.60;;
22650;SDS011;11492;42.646;23.400;2023-03-01T16:20:24;12.70;;;6.20;;
22650;SDS011;11492;42.646;23.400;2023-03-01T16:22:50;10.30;;;5.90;;
22650;SDS011;11492;42.646;23.400;2023-03-01T16:25:17;13.52;;;5.95;;
22650;SDS011;11492;42.646;23.400;2023-03-01T16:27:48;9.50;;;5.65;;
22650;SDS011;11492;42.646;23.400;2023-03-01T16:30:15;11.82;;;6.68;;
22650;SDS011;11492;42.646;23.400;2023-03-01T16:32:44;13.77;;;5.75;;
22650;SDS011;11492;42.646;23.400;2023-03-01T16:35:11;19.70;;;6.13;;
22650;SDS011;11492;42.646;23.400;2023-03-01T16:37:38;10.07;;;5.60;;
22650;SDS011;11492;42.646;23.400;2023-03-01T16:40:05;17.55;;;6.40;;
22650;SDS011;11492;42.646;23.400;2023-03-01T16:42:37;8.63;;;4.75;;
22650;SDS011;11492;42.646;23.400;2023-03-01T16:45:02;7.18;;;3.88;;
22650;SDS011;11492;42.646;23.400;2023-03-01T16:47:29;7.28;;;3.30;;
22650;SDS011;11492;42.646;23.400;2023-03-01T16:49:54;5.45;;;3.00;;
22650;SDS011;11492;42.646;23.400;2023-03-01T16:52:20;6.63;;;3.40;;
22650;SDS011;11492;42.646;23.400;2023-03-01T16:54:47;6.53;;;3.67;;
22650;SDS011;11492;42.646;23.400;2023-03-01T16:57:12;8.30;;;3.80;;
22650;SDS011;11492;42.646;23.400;2023-03-01T16:59:38;6.28;;;3.42;;
22650;SDS011;11492;42.646;23.400;2023-03-01T17:02:04;12.27;;;3.72;;
22650;SDS011;11492;42.646;23.400;2023-03-01T17:04:31;11.05;;;3.50;;